Time;durP1;ratioP1;P1;durP2;ratioP2;P2;SDS_P1;SDS_P2;PMS_P1;PMS_P2;Temp;Humidity;BMP_temperature;BMP_pressure;BME280_temperature;BME280_humidity;BME280_pressure;Samples;Min_cycle;Max_cycle;Signal;HPM_P1;HPM_P2
2022/12/06 00:01:16;;;;;;;24.35;16.08;;;;;;;4.59;100.00;93644.72;5109965;28;20502;-70
2022/12/06 00:03:45;;;;;;;24.52;16.50;;;;;;;4.61;100.00;93647.09;5110068;28;20077;-70
2022/12/06 00:06:15;;;;;;;21.17;14.80;;;;;;;4.57;100.00;93640.75;5110390;28;20403;-70
2022/12/06 00:08:43;;;;;;;20.40;15.45;;;;;;;4.59;100.00;93641.38;5110235;28;20051;-70
2022/12/06 00:11:11;;;;;;;22.48;15.80;;;;;;;4.61;100.00;93647.09;5109527;28;20044;-70
2022/12/06 00:13:39;;;;;;;22.20;16.88;;;;;;;4.51;100.00;93644.72;5109435;28;20043;-70
2022/12/06 00:16:07;;;;;;;24.35;17.48;;;;;;;4.49;100.00;93639.78;5109657;28;20047;-70
2022/12/06 00:18:36;;;;;;;24.55;16.60;;;;;;;4.55;100.00;93646.78;5109562;28;20120;-71
2022/12/06 00:21:07;;;;;;;22.40;15.93;;;;;;;4.57;100.00;93643.31;5109594;28;20558;-71
2022/12/06 00:23:37;;;;;;;25.60;17.50;;;;;;;4.62;100.00;93643.59;5113828;28;20075;-71
2022/12/06 00:26:04;;;;;;;25.60;16.73;;;;;;;4.71;100.00;93641.84;5114022;28;20418;-71
2022/12/06 00:28:31;;;;;;;26.95;16.65;;;;;;;4.67;100.00;93638.81;5113756;28;20071;-71
2022/12/06 00:30:58;;;;;;;21.75;14.38;;;;;;;4.48;100.00;93648.38;5113717;28;20056;-70
2022/12/06 00:33:25;;;;;;;20.45;14.45;;;;;;;4.52;100.00;93646.31;5113616;28;20046;-71
2022/12/06 00:35:55;;;;;;;21.88;14.23;;;;;;;4.32;100.00;93645.84;5113561;28;20120;-71
2022/12/06 00:38:22;;;;;;;20.20;12.52;;;;;;;4.18;100.00;93647.28;5113485;28;20059;-71
2022/12/06 00:40:50;;;;;;;20.38;12.63;;;;;;;4.09;100.00;93644.75;5113599;28;20455;-71
2022/12/06 00:43:17;;;;;;;20.77;12.48;;;;;;;4.06;100.00;93647.59;5113477;28;20044;-71
2022/12/06 00:45:44;;;;;;;21.85;13.65;;;;;;;4.07;100.00;93649.19;5110788;28;20039;-70
2022/12/06 00:48:10;;;;;;;19.25;12.90;;;;;;;4.23;100.00;93648.41;5113276;28;20051;-70
2022/12/06 00:50:37;;;;;;;18.13;12.32;;;;;;;4.30;100.00;93642.69;5113112;28;20048;-70
2022/12/06 00:53:07;;;;;;;20.80;12.98;;;;;;;4.25;100.00;93645.69;5113409;28;20117;-70
2022/12/06 00:55:33;;;;;;;21.35;14.30;;;;;;;4.25;100.00;93646.50;5113335;28;20044;-70
2022/12/06 00:58:01;;;;;;;43.75;29.67;;;;;;;4.32;100.00;93645.84;5112855;28;20503;-70
2022/12/06 01:00:28;;;;;;;36.75;23.17;;;;;;;4.41;100.00;93642.38;5112789;28;20043;-70
2022/12/06 01:02:57;;;;;;;30.05;20.50;;;;;;;4.46;100.00;93646.97;5112985;28;20036;-71
2022/12/06 01:05:24;;;;;;;23.42;15.30;;;;;;;4.44;100.00;93639.47;5112895;28;20544;-71
2022/12/06 01:07:50;;;;;;;24.15;15.57;;;;;;;4.52;100.00;93641.22;5113228;28;20044;-71
2022/12/06 01:10:17;;;;;;;23.35;14.77;;;;;;;4.63;100.00;93629.94;5113583;28;20059;-71
2022/12/06 01:12:44;;;;;;;25.35;14.85;;;;;;;4.68;100.00;93620.84;5113554;28;20048;-71
2022/12/06 01:15:12;;;;;;;24.05;16.23;;;;;;;4.80;100.00;93623.84;5113378;28;20051;-71
2022/12/06 01:17:39;;;;;;;23.65;15.65;;;;;;;4.88;100.00;93617.94;5113358;28;20051;-71
2022/12/06 01:20:07;;;;;;;25.10;16.25;;;;;;;4.86;100.00;93617.28;5113387;28;20113;-71
2022/12/06 01:22:34;;;;;;;25.55;16.55;;;;;;;5.03;100.00;93630.75;5113040;28;20406;-71
2022/12/06 01:25:01;;;;;;;22.70;15.07;;;;;;;5.07;100.00;93628.69;5113155;28;20044;-71
2022/12/06 01:27:27;;;;;;;25.83;15.60;;;;;;;5.17;100.00;93620.84;5113325;28;20380;-71
2022/12/06 01:29:54;;;;;;;22.50;14.55;;;;;;;5.20;100.00;93615.41;5112871;28;20044;-71
2022/12/06 01:32:22;;;;;;;24.38;15.40;;;;;;;5.18;100.00;93617.31;5113063;28;20040;-71
2022/12/06 01:34:51;;;;;;;29.25;18.00;;;;;;;5.27;100.00;93615.56;5112870;28;20095;-71
2022/12/06 01:37:17;;;;;;;24.60;16.15;;;;;;;5.31;100.00;93622.69;5112767;28;20070;-71
2022/12/06 01:39:45;;;;;;;27.33;16.88;;;;;;;5.34;100.00;93613.91;5112517;28;20059;-71
2022/12/06 01:42:12;;;;;;;27.77;16.85;;;;;;;5.38;100.00;93619.47;5112330;28;20101;-71
2022/12/06 01:44:41;;;;;;;30.58;18.15;;;;;;;5.39;100.00;93618.50;5112506;27;20062;-72
2022/12/06 01:47:13;;;;;;;28.33;18.17;;;;;;;5.38;100.00;93611.81;5098429;28;20047;-71
2022/12/06 01:49:43;;;;;;;32.80;18.85;;;;;;;5.41;100.00;93614.84;5112878;28;20085;-71
2022/12/06 01:52:13;;;;;;;29.20;18.27;;;;;;;5.42;100.00;93608.78;5112303;28;20495;-71
2022/12/06 01:54:40;;;;;;;31.80;19.63;;;;;;;5.39;100.00;93608.31;5112612;28;20059;-71
2022/12/06 01:57:12;;;;;;;30.92;18.42;;;;;;;5.43;100.00;93614.66;5112433;28;20089;-71
2022/12/06 01:59:39;;;;;;;32.72;20.48;;;;;;;5.43;100.00;93604.47;5112662;28;20570;-70
2022/12/06 02:02:07;;;;;;;29.52;18.67;;;;;;;5.43;100.00;93597.63;5112255;28;20047;-70
2022/12/06 02:04:34;;;;;;;30.52;20.05;;;;;;;5.35;100.00;93601.03;5112444;28;20100;-71
2022/12/06 02:07:03;;;;;;;33.88;20.10;;;;;;;5.37;100.00;93605.94;5112166;28;20461;-71
2022/12/06 02:09:30;;;;;;;34.05;20.13;;;;;;;5.32;100.00;93596.25;5112373;28;20046;-71
2022/12/06 02:11:57;;;;;;;34.53;21.38;;;;;;;5.01;100.00;93591.97;5112299;28;20059;-71
2022/12/06 02:14:28;;;;;;;32.65;22.05;;;;;;;4.93;100.00;93591.97;5112586;28;20620;-71
2022/12/06 02:17:11;;;;;;;35.20;22.00;;;;;;;4.89;100.00;93583.06;5111982;28;20051;-71
2022/12/06 02:20:02;;;;;;;35.08;22.17;;;;;;;4.91;100.00;93592.13;5112266;28;20085;-71
2022/12/06 02:22:45;;;;;;;35.17;21.98;;;;;;;4.98;100.00;93578.75;5107949;27;20040;-71
2022/12/06 02:25:35;;;;;;;33.15;20.30;;;;;;;5.06;100.00;93571.09;5111690;28;20048;-71
2022/12/06 02:28:24;;;;;;;31.75;21.00;;;;;;;5.11;100.00;93570.56;5112341;28;20055;-71
2022/12/06 02:30:58;;;;;;;32.78;19.90;;;;;;;5.14;100.00;93572.78;5111498;28;20560;-71
2022/12/06 02:33:33;;;;;;;35.38;20.95;;;;;;;5.19;100.00;93573.09;5112034;28;20131;-71
2022/12/06 02:36:06;;;;;;;35.95;21.40;;;;;;;5.27;100.00;93574.81;5111556;28;20055;-71
2022/12/06 02:38:36;;;;;;;34.67;19.88;;;;;;;5.31;100.00;93564.09;5111695;28;20101;-71
2022/12/06 02:41:12;;;;;;;33.47;21.17;;;;;;;5.31;100.00;93548.00;5111660;28;20048;-70
2022/12/06 02:43:43;;;;;;;35.53;18.67;;;;;;;5.43;100.00;93563.72;5111135;28;20048;-72
2022/12/06 02:46:14;;;;;;;32.83;17.27;;;;;;;5.49;100.00;93552.84;5111161;28;20096;-72
2022/12/06 02:48:42;;;;;;;31.63;17.27;;;;;;;5.28;100.00;93515.25;5111377;28;20044;-72
2022/12/06 02:51:14;;;;;;;34.75;16.58;;;;;;;5.52;100.00;93544.06;5111421;28;20051;-72
2022/12/06 02:53:45;;;;;;;35.08;16.17;;;;;;;5.60;100.00;93556.78;5111470;28;20108;-72
2022/12/06 02:56:14;;;;;;;33.78;17.45;;;;;;;5.55;100.00;93549.63;5111340;28;20055;-72
2022/12/06 02:58:40;;;;;;;34.75;17.88;;;;;;;5.61;100.00;93559.13;5111368;28;20104;-72
2022/12/06 03:01:15;;;;;;;31.77;18.23;;;;;;;5.66;100.00;93556.09;5111117;28;20073;-72
2022/12/06 03:04:30;;;;;;;38.38;18.63;;;;;;;5.72;100.00;93557.16;5111234;28;20031;-72
2022/12/06 03:07:15;;;;;;;32.95;15.88;;;;;;;5.65;100.00;93549.38;5084327;28;20519;-72
2022/12/06 03:09:52;;;;;;;34.00;17.75;;;;;;;5.72;100.00;93546.94;5111303;28;20097;-71
2022/12/06 03:12:29;;;;;;;34.97;17.80;;;;;;;5.70;100.00;93549.66;5110886;28;20096;-71
2022/12/06 03:15:05;;;;;;;35.25;17.40;;;;;;;5.71;100.00;93551.28;5110830;28;20495;-71
2022/12/06 03:17:38;;;;;;;36.90;15.98;;;;;;;5.77;100.00;93559.19;5110815;28;20562;-71
2022/12/06 03:20:10;;;;;;;35.42;16.77;;;;;;;5.66;100.00;93542.53;5110758;28;20105;-71
2022/12/06 03:22:42;;;;;;;33.17;16.95;;;;;;;5.78;100.00;93560.78;5110719;28;20084;-71
2022/12/06 03:25:10;;;;;;;34.63;17.13;;;;;;;5.79;100.00;93555.50;5110826;28;20052;-71
2022/12/06 03:27:39;;;;;;;30.00;16.05;;;;;;;5.72;100.00;93549.50;5110946;28;20043;-72
2022/12/06 03:30:09;;;;;;;28.92;15.27;;;;;;;5.80;100.00;93554.56;5110382;28;20092;-72
2022/12/06 03:32:41;;;;;;;22.50;12.90;;;;;;;5.71;100.00;93545.38;5110303;28;20072;-71
2022/12/06 03:35:12;;;;;;;24.83;13.85;;;;;;;5.71;100.00;93545.38;5110764;28;20133;-71
2022/12/06 03:37:43;;;;;;;25.63;14.07;;;;;;;5.71;100.00;93550.47;5110729;28;20043;-71
2022/12/06 03:40:17;;;;;;;24.98;12.63;;;;;;;5.69;100.00;93543.00;5110092;28;20503;-72
2022/12/06 03:42:44;;;;;;;25.20;12.63;;;;;;;5.71;100.00;93541.06;5110291;28;20126;-71
2022/12/06 03:45:12;;;;;;;20.60;11.23;;;;;;;5.71;100.00;93535.97;5110462;28;20044;-71
2022/12/06 03:47:50;;;;;;;22.27;12.07;;;;;;;5.73;100.00;93533.25;5110503;28;20074;-71
2022/12/06 03:50:22;;;;;;;21.30;12.60;;;;;;;5.67;100.00;93531.38;5096301;28;20491;-72
2022/12/06 03:52:51;;;;;;;22.25;12.27;;;;;;;5.78;100.00;93536.06;5110390;28;20415;-72
2022/12/06 03:55:18;;;;;;;26.33;14.27;;;;;;;5.79;100.00;93530.00;5109820;28;20044;-72
2022/12/06 03:57:44;;;;;;;23.08;13.30;;;;;;;5.85;100.00;93531.09;5109885;28;20560;-72
2022/12/06 04:00:12;;;;;;;24.00;13.48;;;;;;;5.89;100.00;93530.56;5110102;28;20418;-72
2022/12/06 04:02:39;;;;;;;25.35;14.63;;;;;;;5.86;100.00;93515.63;5110020;28;20097;-71
2022/12/06 04:05:08;;;;;;;25.77;13.90;;;;;;;5.93;100.00;93528.44;5110375;28;20051;-71
2022/12/06 04:07:35;;;;;;;23.88;13.15;;;;;;;6.00;100.00;93534.47;5110414;28;20132;-71
2022/12/06 04:10:02;;;;;;;25.88;14.75;;;;;;;6.05;100.00;93540.81;5110295;28;20047;-71
2022/12/06 04:15:14;;;;;;;27.10;15.20;;;;;;;6.08;100.00;93543.84;5110185;28;20089;-71
2022/12/06 04:23:02;;;;;;;28.48;15.95;;;;;;;5.85;100.00;93495.41;5109482;28;20058;-71
2022/12/06 04:23:15;;;;;;;28.48;14.65;;;;;;;6.14;100.00;93539.78;5109890;28;20130;-71
2022/12/06 04:25:42;;;;;;;27.35;14.07;;;;;;;6.08;100.00;93528.53;5109906;28;20058;-71
2022/12/06 04:39:06;;;;;;;29.27;16.48;;;;;;;6.12;100.00;93519.53;5109320;28;20101;-70
2022/12/06 04:44:18;;;;;;;28.92;15.65;;;;;;;6.19;100.00;93529.84;5109584;28;20161;-70
2022/12/06 04:46:44;;;;;;;32.20;16.02;;;;;;;6.18;100.00;93530.81;5109723;28;20100;-70
2022/12/06 04:49:11;;;;;;;33.25;16.23;;;;;;;6.19;100.00;93529.84;5109371;28;20129;-70
2022/12/06 04:51:39;;;;;;;33.05;17.52;;;;;;;6.20;100.00;93533.22;5109928;28;20112;-70
2022/12/06 04:54:06;;;;;;;31.60;16.23;;;;;;;6.20;100.00;93526.31;5109655;28;20048;-70
2022/12/06 04:56:33;;;;;;;31.02;17.25;;;;;;;6.25;100.00;93525.81;5109136;28;20126;-70
2022/12/06 04:59:00;;;;;;;31.85;18.23;;;;;;;6.25;100.00;93526.59;5109799;28;20449;-70
2022/12/06 05:01:26;;;;;;;28.35;17.27;;;;;;;6.28;100.00;93525.47;5109445;28;20096;-71
2022/12/06 05:03:53;;;;;;;32.55;17.10;;;;;;;6.27;100.00;93534.88;5109684;28;20096;-71
2022/12/06 05:06:20;;;;;;;29.52;16.15;;;;;;;6.30;100.00;93527.84;5109949;28;20043;-70
2022/12/06 05:08:48;;;;;;;23.52;14.13;;;;;;;6.22;100.00;93532.06;5113278;28;20105;-71
2022/12/06 05:11:15;;;;;;;26.33;14.38;;;;;;;6.19;100.00;93531.59;5113725;28;20531;-71
2022/12/06 05:13:41;;;;;;;30.70;15.45;;;;;;;6.13;100.00;93528.81;5113568;28;20040;-71
2022/12/06 05:16:09;;;;;;;27.48;14.80;;;;;;;6.06;100.00;93527.91;5113111;28;20120;-72
2022/12/06 05:18:35;;;;;;;27.92;14.65;;;;;;;6.09;100.00;93531.84;5113104;28;20051;-71
2022/12/06 05:21:04;;;;;;;25.35;14.00;;;;;;;5.99;100.00;93525.22;5113151;28;20047;-71
2022/12/06 05:23:31;;;;;;;28.45;14.20;;;;;;;6.05;100.00;93535.72;5113299;28;20048;-71
2022/12/06 05:26:01;;;;;;;29.38;14.80;;;;;;;6.05;100.00;93535.72;5113073;28;20058;-71
2022/12/06 05:28:28;;;;;;;25.10;15.35;;;;;;;6.04;100.00;93526.47;5113179;28;20091;-70
2022/12/06 05:30:55;;;;;;;28.73;15.13;;;;;;;6.04;100.00;93534.13;5112651;28;20089;-70
2022/12/06 05:33:22;;;;;;;26.55;14.85;;;;;;;6.03;100.00;93535.09;5113348;27;20048;-71
2022/12/06 05:35:49;;;;;;;25.83;13.48;;;;;;;6.00;100.00;93526.00;5113163;28;20043;-71
2022/12/06 05:38:16;;;;;;;24.35;13.80;;;;;;;5.97;100.00;93523.81;5112891;28;20117;-70
2022/12/06 05:40:43;;;;;;;20.95;12.00;;;;;;;5.79;100.00;93498.63;5112984;28;20117;-70
2022/12/06 05:43:12;;;;;;;27.50;13.40;;;;;;;5.99;100.00;93527.78;5112682;28;20051;-71
2022/12/06 05:45:39;;;;;;;23.77;13.18;;;;;;;5.99;100.00;93520.13;5112921;28;20047;-71
2022/12/06 05:48:06;;;;;;;29.95;16.20;;;;;;;5.95;100.00;93533.38;5112596;28;20048;-70
2022/12/06 05:50:34;;;;;;;28.45;13.98;;;;;;;5.94;100.00;93531.81;5112753;28;20503;-71
2022/12/06 05:53:01;;;;;;;37.95;15.65;;;;;;;5.96;100.00;93530.66;5112430;28;20051;-71
2022/12/06 05:55:28;;;;;;;33.22;15.75;;;;;;;5.96;100.00;93530.66;5112683;28;20047;-71
2022/12/06 05:57:55;;;;;;;24.35;13.32;;;;;;;5.87;100.00;93508.75;5113035;28;20055;-71
2022/12/06 06:00:23;;;;;;;26.80;15.10;;;;;;;5.96;100.00;93522.22;5112650;28;20097;-70
2022/12/06 06:02:50;;;;;;;27.42;13.80;;;;;;;5.95;100.00;93528.28;5112108;28;20043;-71
2022/12/06 06:05:17;;;;;;;26.27;16.08;;;;;;;5.93;100.00;93525.91;5112535;28;20404;-70
2022/12/06 06:07:44;;;;;;;29.90;14.88;;;;;;;5.96;100.00;93515.38;5112630;28;20055;-70
2022/12/06 06:10:11;;;;;;;26.77;15.63;;;;;;;5.98;100.00;93530.50;5111910;28;20081;-71
2022/12/06 06:12:37;;;;;;;27.63;13.73;;;;;;;5.98;100.00;93538.16;5112275;28;20097;-70
2022/12/06 06:15:06;;;;;;;23.50;12.65;;;;;;;5.93;100.00;93541.19;5112302;28;20043;-70
2022/12/06 06:17:35;;;;;;;31.63;16.98;;;;;;;6.00;100.00;93539.56;5112033;28;20130;-71
2022/12/06 06:20:05;;;;;;;29.38;14.95;;;;;;;6.03;100.00;93542.75;5111088;28;20056;-71
2022/12/06 06:22:32;;;;;;;29.42;16.25;;;;;;;6.07;100.00;93538.91;5111780;28;20040;-70
2022/12/06 06:24:58;;;;;;;30.50;17.73;;;;;;;6.09;100.00;93545.41;5112186;28;20047;-71
2022/12/06 06:27:25;;;;;;;28.60;16.40;;;;;;;6.07;100.00;93542.22;5112114;28;20051;-71
2022/12/06 06:29:52;;;;;;;30.60;15.43;;;;;;;6.11;100.00;93546.03;5111741;28;20051;-70
2022/12/06 06:32:19;;;;;;;29.23;14.48;;;;;;;6.12;100.00;93545.03;5112018;28;20123;-71
2022/12/06 06:34:47;;;;;;;27.38;14.32;;;;;;;5.92;100.00;93498.06;5112421;28;20101;-71
2022/12/06 06:37:14;;;;;;;33.53;17.15;;;;;;;6.10;100.00;93543.63;5111867;28;20051;-71
2022/12/06 06:39:40;;;;;;;28.85;14.50;;;;;;;6.17;100.00;93534.34;5111541;28;20051;-71
2022/12/06 06:42:07;;;;;;;32.33;16.27;;;;;;;6.15;100.00;93537.06;5110964;28;20051;-71
2022/12/06 06:44:34;;;;;;;30.55;15.73;;;;;;;6.13;100.00;93520.34;5111346;28;20047;-71
2022/12/06 06:47:00;;;;;;;28.35;14.35;;;;;;;6.21;100.00;93538.09;5111857;28;20408;-70
2022/12/06 06:49:27;;;;;;;32.08;15.40;;;;;;;6.20;100.00;93528.88;5111278;28;20115;-71
2022/12/06 06:51:55;;;;;;;31.50;15.82;;;;;;;6.24;100.00;93535.22;5111631;28;20044;-71
2022/12/06 06:54:22;;;;;;;34.25;15.63;;;;;;;6.17;100.00;93534.34;5111217;28;20556;-71
2022/12/06 06:56:49;;;;;;;31.77;16.02;;;;;;;6.18;100.00;93533.38;5111291;28;20112;-71
2022/12/06 06:59:16;;;;;;;33.08;16.20;;;;;;;6.17;100.00;93531.78;5111649;28;20048;-71
2022/12/06 07:01:43;;;;;;;27.73;13.82;;;;;;;6.15;100.00;93531.16;5111052;28;20105;-71
2022/12/06 07:04:10;;;;;;;25.58;13.02;;;;;;;6.19;100.00;93531.59;5111109;28;20081;-71
2022/12/06 07:06:36;;;;;;;26.58;14.00;;;;;;;6.24;100.00;93540.31;5107332;28;20494;-71
2022/12/06 07:09:04;;;;;;;31.42;16.08;;;;;;;6.26;100.00;93543.47;5095128;28;20101;-71
2022/12/06 07:11:31;;;;;;;34.08;16.75;;;;;;;6.33;100.00;93537.69;5111012;28;20044;-71
2022/12/06 07:13:58;;;;;;;43.15;20.40;;;;;;;6.38;100.00;93538.75;5111123;28;20120;-71
2022/12/06 07:16:25;;;;;;;35.20;15.48;;;;;;;6.26;100.00;93528.19;5111032;28;20077;-71
2022/12/06 07:18:51;;;;;;;33.55;15.32;;;;;;;6.25;100.00;93536.03;5110725;28;20051;-71
2022/12/06 07:21:18;;;;;;;34.17;15.88;;;;;;;6.27;100.00;93534.09;5111053;28;20056;-71
2022/12/06 07:23:45;;;;;;;31.23;16.83;;;;;;;6.02;100.00;93498.59;5110499;28;20629;-71
2022/12/06 07:26:15;;;;;;;26.98;14.15;;;;;;;6.19;100.00;93526.50;5110760;28;20052;-71
2022/12/06 07:28:43;;;;;;;25.20;14.45;;;;;;;6.21;100.00;93533.00;5110747;28;20568;-70
2022/12/06 07:31:12;;;;;;;36.78;17.60;;;;;;;6.25;100.00;93539.34;5110197;28;20101;-70
2022/12/06 07:33:39;;;;;;;39.65;22.98;;;;;;;6.24;100.00;93540.31;5110583;28;20044;-71
2022/12/06 07:36:07;;;;;;;32.67;18.48;;;;;;;6.26;100.00;93532.50;5110757;28;20469;-71
2022/12/06 07:38:33;;;;;;;38.90;19.38;;;;;;;6.29;100.00;93532.13;5110328;28;20456;-71
2022/12/06 07:41:01;;;;;;;79.63;50.33;;;;;;;6.34;100.00;93534.19;5110401;28;20092;-71
2022/12/06 07:46:14;;;;;;;26.65;14.90;;;;;;;6.36;100.00;93538.16;5110178;28;20054;-71
2022/12/06 07:48:40;;;;;;;27.77;14.85;;;;;;;6.38;100.00;93540.50;5110091;28;20044;-71
2022/12/06 07:51:07;;;;;;;28.70;17.10;;;;;;;6.48;100.00;93542.81;5110659;28;20453;-71
2022/12/06 07:53:34;;;;;;;24.90;15.13;;;;;;;6.51;100.00;93545.81;5110495;28;20096;-71
2022/12/06 07:56:06;;;;;;;27.13;16.27;;;;;;;6.50;100.00;93544.22;5110583;28;20056;-71
2022/12/06 07:58:34;;;;;;;29.10;16.92;;;;;;;6.55;100.00;93546.25;5110396;28;20101;-70
2022/12/06 08:01:03;;;;;;;25.58;15.70;;;;;;;6.60;100.00;93538.84;5110527;28;20123;-70
2022/12/06 08:03:29;;;;;;;30.73;18.73;;;;;;;6.70;100.00;93537.78;5110100;28;20127;-70
2022/12/06 08:05:56;;;;;;;30.95;21.00;;;;;;;6.79;100.00;93536.72;5110088;28;20577;-70
2022/12/06 08:08:23;;;;;;;31.98;19.02;;;;;;;6.88;100.00;93542.50;5109926;28;20109;-70
2022/12/06 08:10:49;;;;;;;30.85;19.45;;;;;;;7.01;100.00;93544.44;5110199;28;20423;-70
2022/12/06 08:13:16;;;;;;;43.45;29.95;;;;;;;7.07;100.00;93548.81;5110056;28;20104;-70
2022/12/06 08:15:44;;;;;;;32.88;19.25;;;;;;;7.12;100.00;93541.41;5110228;28;20047;-70
2022/12/06 08:18:11;;;;;;;52.38;31.38;;;;;;;7.16;100.00;93545.19;5109880;28;20123;-71
2022/12/06 08:20:38;;;;;;;38.45;24.13;;;;;;;7.11;100.00;93528.81;5110157;28;20047;-70
2022/12/06 08:23:05;;;;;;;37.63;21.23;;;;;;;7.22;100.00;93539.38;5110261;28;20407;-71
2022/12/06 08:25:32;;;;;;;32.42;21.33;;;;;;;7.31;100.00;93536.72;5109845;28;20051;-70
2022/12/06 08:27:58;;;;;;;31.45;21.17;;;;;;;7.31;100.00;93527.28;5109997;28;20051;-71
2022/12/06 08:30:25;;;;;;;28.63;16.75;;;;;;;7.35;100.00;93525.13;5109778;28;20608;-70
2022/12/06 08:32:53;;;;;;;27.10;15.50;;;;;;;7.35;100.00;93528.50;5109945;28;20446;-70
2022/12/06 08:35:20;;;;;;;22.90;14.77;;;;;;;7.33;100.00;93529.66;5109822;28;20465;-70
2022/12/06 08:37:47;;;;;;;24.70;14.40;;;;;;;7.40;100.00;93537.41;5109735;28;20098;-70
2022/12/06 08:40:14;;;;;;;39.70;18.83;;;;;;;7.42;100.00;93527.78;5069555;28;20057;-70
2022/12/06 08:42:42;;;;;;;24.80;14.27;;;;;;;7.45;100.00;93532.53;5071275;28;20086;-70
2022/12/06 08:45:09;;;;;;;28.20;15.85;;;;;;;7.54;100.00;93544.19;5073351;28;20139;-70
2022/12/06 08:47:36;;;;;;;34.90;19.00;;;;;;;7.53;100.00;93541.81;5073307;28;20049;-70
2022/12/06 08:50:05;;;;;;;34.53;19.15;;;;;;;7.47;100.00;93536.50;5073075;28;20048;-70
2022/12/06 08:52:32;;;;;;;27.17;16.05;;;;;;;7.46;100.00;93534.09;5072992;28;20576;-70
2022/12/06 08:54:59;;;;;;;27.77;15.60;;;;;;;7.41;100.00;93534.63;5072912;28;20093;-70
2022/12/06 08:57:25;;;;;;;32.58;16.85;;;;;;;7.42;100.00;93533.69;5072998;28;20569;-70
2022/12/06 08:59:52;;;;;;;26.52;14.88;;;;;;;7.42;100.00;93538.78;5072728;28;20056;-70
2022/12/06 09:02:19;;;;;;;31.70;17.20;;;;;;;7.35;100.00;93520.84;5058699;28;20094;-70
2022/12/06 09:04:46;;;;;;;31.38;17.45;;;;;;;7.44;100.00;93525.81;5073108;28;20049;-70
2022/12/06 09:07:14;;;;;;;32.10;16.65;;;;;;;7.48;100.00;93517.63;5073125;28;20048;-70
2022/12/06 09:09:40;;;;;;;40.22;21.65;;;;;;;7.53;100.00;93518.81;5072713;28;20512;-70
2022/12/06 09:12:07;;;;;;;32.28;16.70;;;;;;;7.56;100.00;93508.22;5072629;28;20102;-70
2022/12/06 09:14:34;;;;;;;26.98;15.00;;;;;;;7.47;100.00;93505.81;5072644;28;20044;-70
2022/12/06 09:17:01;;;;;;;23.80;12.30;;;;;;;7.48;100.00;93504.84;5069161;28;20129;-70
2022/12/06 09:19:27;;;;;;;31.60;15.30;;;;;;;7.51;100.00;93510.53;5072092;28;20044;-70
2022/12/06 09:21:54;;;;;;;25.17;13.75;;;;;;;7.58;100.00;93501.97;5052512;28;20436;-70
2022/12/06 09:24:22;;;;;;;23.20;14.07;;;;;;;7.60;100.00;93496.69;5051962;28;20045;-70
2022/12/06 09:26:49;;;;;;;20.45;11.70;;;;;;;7.69;100.00;93498.09;5052079;28;20053;-71
2022/12/06 09:29:17;;;;;;;23.77;14.88;;;;;;;7.54;100.00;93452.16;5052284;28;20044;-70
2022/12/06 09:31:44;;;;;;;23.08;14.18;;;;;;;7.85;100.00;93475.81;5051710;28;20536;-71
2022/12/06 09:34:12;;;;;;;21.58;13.05;;;;;;;7.88;100.00;93475.44;5051644;28;20053;-70
2022/12/06 09:36:43;;;;;;;26.08;14.50;;;;;;;7.73;100.00;93471.19;5051691;28;20052;-70
2022/12/06 09:39:13;;;;;;;24.98;14.45;;;;;;;7.74;100.00;93472.78;5084118;28;20368;-70
2022/12/06 09:42:30;;;;;;;25.13;13.40;;;;;;;7.77;100.00;93475.97;5112182;28;20073;-70
2022/12/06 09:45:15;;;;;;;24.90;14.02;;;;;;;7.74;100.00;93470.22;5076560;28;20418;-71
2022/12/06 09:48:07;;;;;;;25.23;14.38;;;;;;;7.77;100.00;93468.28;5112308;28;20050;-70
2022/12/06 09:50:45;;;;;;;22.98;14.77;;;;;;;7.79;100.00;93462.00;5112313;28;20039;-70
2022/12/06 09:53:22;;;;;;;25.67;15.50;;;;;;;7.82;100.00;93459.06;5110646;28;20052;-70
2022/12/06 09:56:02;;;;;;;25.33;14.10;;;;;;;7.86;100.00;93452.63;5111214;28;20055;-70
2022/12/06 09:58:45;;;;;;;25.90;17.08;;;;;;;7.93;100.00;93449.31;5111799;28;20047;-70
2022/12/06 10:01:22;;;;;;;30.02;17.15;;;;;;;8.04;100.00;93442.91;5109478;28;20047;-71
2022/12/06 10:03:59;;;;;;;26.83;16.15;;;;;;;8.07;100.00;93429.72;5111608;28;20055;-70
2022/12/06 10:06:33;;;;;;;28.67;16.90;;;;;;;8.11;100.00;93431.69;5111530;28;20130;-70
2022/12/06 10:09:15;;;;;;;23.33;14.98;;;;;;;8.13;100.00;93432.31;5112384;28;20739;-71
2022/12/06 10:12:03;;;;;;;20.77;13.75;;;;;;;8.05;100.00;93417.09;5112451;28;20044;-70
2022/12/06 10:14:45;;;;;;;23.02;12.95;;;;;;;8.11;100.00;93428.34;5104019;28;20052;-71
2022/12/06 10:17:22;;;;;;;29.73;18.27;;;;;;;8.12;100.00;93415.38;5100449;28;20048;-70
2022/12/06 10:20:02;;;;;;;19.33;11.82;;;;;;;8.05;100.00;93411.22;5112202;28;20055;-70
2022/12/06 10:22:41;;;;;;;17.23;11.70;;;;;;;8.03;100.00;93396.03;5111855;28;20051;-70
2022/12/06 10:25:13;;;;;;;22.70;12.25;;;;;;;8.06;100.00;93397.44;5102890;28;20101;-69
2022/12/06 10:27:42;;;;;;;18.83;12.38;;;;;;;8.10;100.00;93396.09;5110465;28;20127;-69
2022/12/06 10:30:29;;;;;;;14.10;9.85;;;;;;;8.02;100.00;93394.47;5111751;28;20503;-69
2022/12/06 10:33:05;;;;;;;25.05;14.80;;;;;;;8.02;100.00;93395.25;5111847;28;20043;-70
2022/12/06 10:35:39;;;;;;;;;;;;;;;8.14;100.00;93397.25;5112363;28;20465;-69
2022/12/06 10:38:19;;;;;;;27.08;18.10;;;;;;;8.18;100.00;93395.16;5111558;28;20371;-69
2022/12/06 10:40:52;;;;;;;40.88;24.40;;;;;;;8.18;100.00;93393.34;5101368;28;20109;-69
2022/12/06 10:43:27;;;;;;;26.05;15.55;;;;;;;8.29;100.00;93392.03;5098273;28;20491;-69
2022/12/06 10:48:59;;;;;;;14.77;9.88;;;;;;;8.38;100.00;93384.97;5111544;28;20498;-69
2022/12/06 10:51:34;;;;;;;23.50;14.52;;;;;;;8.45;100.00;93382.44;5110833;28;20096;-69
2022/12/06 10:54:10;;;;;;;26.65;15.68;;;;;;;8.54;100.00;93379.56;5094583;28;20441;-69
2022/12/06 10:56:39;;;;;;;;;;;;;;;8.60;100.00;93372.84;5112126;28;20048;-69
2022/12/06 10:59:17;;;;;;;19.88;12.95;;;;;;;8.69;100.00;93366.59;5111147;28;19920;-70
2022/12/06 11:01:46;;;;;;;24.15;15.20;;;;;;;8.85;100.00;93356.97;5111537;28;20116;-69
2022/12/06 11:04:19;;;;;;;18.25;11.55;;;;;;;8.86;100.00;93343.16;5110961;28;20104;-69
2022/12/06 11:06:50;;;;;;;21.80;11.80;;;;;;;8.99;100.00;93341.59;5110779;28;20043;-70
2022/12/06 11:09:23;;;;;;;22.05;13.52;;;;;;;8.96;100.00;93319.72;5111041;28;20461;-70
2022/12/06 11:11:50;;;;;;;13.77;8.13;;;;;;;9.25;100.00;93332.34;5111150;28;20059;-70
2022/12/06 11:14:23;;;;;;;23.08;13.27;;;;;;;9.34;100.00;93331.94;5110825;28;20073;-70
2022/12/06 11:16:55;;;;;;;14.25;10.45;;;;;;;9.49;100.00;93328.34;5111103;28;20119;-70
2022/12/06 11:19:30;;;;;;;27.05;15.43;;;;;;;9.67;100.00;93330.31;5108060;28;20056;-70
2022/12/06 11:22:04;;;;;;;21.27;11.73;;;;;;;9.72;100.00;93333.06;5108850;28;20058;-70
2022/12/06 11:24:36;;;;;;;19.75;9.10;;;;;;;9.85;100.00;93328.88;5110493;28;20047;-71
2022/12/06 11:27:11;;;;;;;23.23;13.00;;;;;;;9.93;100.00;93330.44;5109987;28;20039;-71
2022/12/06 11:29:38;;;;;;;31.95;17.98;;;;;;;9.92;100.00;93321.97;5111479;28;20047;-71
2022/12/06 11:32:07;;;;;;;20.88;11.13;;;;;;;10.07;100.00;93331.97;5111128;28;20055;-70
2022/12/06 11:34:40;;;;;;;48.13;23.58;;;;;;;10.12;100.00;93331.38;5110953;27;20100;-71
2022/12/06 11:37:12;;;;;;;49.88;24.98;;;;;;;10.25;100.00;93325.41;5110515;28;20129;-70
2022/12/06 11:39:39;;;;;;;24.95;12.95;;;;;;;10.21;100.00;93329.34;5110446;28;20055;-71
2022/12/06 11:42:08;;;;;;;81.57;33.90;;;;;;;10.18;100.00;93320.28;5110421;28;20047;-71
2022/12/06 11:44:41;;;;;;;19.10;9.32;;;;;;;10.09;100.00;93321.53;5110458;28;20056;-72
2022/12/06 11:47:14;;;;;;;13.27;7.28;;;;;;;10.14;100.00;93319.13;5110761;28;20120;-71
2022/12/06 11:49:45;;;;;;;12.50;6.38;;;;;;;10.13;100.00;93315.75;5110277;27;20105;-72
2022/12/06 11:52:17;;;;;;;15.15;7.13;;;;;;;10.10;100.00;93308.47;5110654;28;20450;-72
2022/12/06 11:54:50;;;;;;;23.10;9.80;;;;;;;10.13;100.00;93309.84;5110217;28;20503;-71